Time;durP1;ratioP1;P1;durP2;ratioP2;P2;SDS_P1;SDS_P2;PMS_P1;PMS_P2;Temp;Humidity;BMP_temperature;BMP_pressure;BME280_temperature;BME280_humidity;BME280_pressure;Samples;Min_cycle;Max_cycle;Signal;HPM_P1;HPM_P2
2023/06/07 00:03:48;;;;;;;7.53;2.88;;;;;;;;;;10456965;28;20017;-72
2023/06/07 00:08:49;;;;;;;6.55;2.90;;;;;;;;;;10457468;28;20013;-73
2023/06/07 00:13:50;;;;;;;5.50;2.65;;;;;;;;;;10457449;28;20579;-73
2023/06/07 00:18:51;;;;;;;7.15;2.72;;;;;;;;;;10453929;28;20302;-74
2023/06/07 00:23:51;;;;;;;3.42;2.10;;;;;;;;;;10455390;28;20013;-74
2023/06/07 00:28:51;;;;;;;4.07;2.28;;;;;;;;;;10457080;28;20027;-73
2023/06/07 00:33:51;;;;;;;5.23;2.30;;;;;;;;;;10455916;28;20020;-73
2023/06/07 00:38:52;;;;;;;13.80;4.45;;;;;;;;;;10454517;28;20169;-73
2023/06/07 00:43:52;;;;;;;10.70;2.45;;;;;;;;;;10455524;28;20229;-74
2023/06/07 00:48:52;;;;;;;6.07;2.53;;;;;;;;;;10453884;28;20059;-73
2023/06/07 00:53:53;;;;;;;3.33;1.83;;;;;;;;;;10454728;28;20029;-74
2023/06/07 00:58:54;;;;;;;9.10;2.92;;;;;;;;;;10454622;28;20092;-73
2023/06/07 01:03:54;;;;;;;3.58;2.42;;;;;;;;;;10455169;28;20016;-73
2023/06/07 01:08:54;;;;;;;8.80;2.27;;;;;;;;;;10454462;28;20028;-72
2023/06/07 01:13:55;;;;;;;5.60;2.67;;;;;;;;;;10453821;28;20013;-73
2023/06/07 01:18:56;;;;;;;5.03;2.53;;;;;;;;;;10453853;28;20631;-73
2023/06/07 01:23:59;;;;;;;4.00;2.22;;;;;;;;;;10452667;28;20267;-73
2023/06/07 01:29:05;;;;;;;4.40;2.50;;;;;;;;;;10459050;28;20013;-74
2023/06/07 01:34:06;;;;;;;5.78;2.45;;;;;;;;;;10452216;28;20021;-74
2023/06/07 01:39:07;;;;;;;5.13;2.20;;;;;;;;;;10453901;28;20028;-74
2023/06/07 01:44:08;;;;;;;5.93;3.10;;;;;;;;;;10454662;28;20107;-74
2023/06/07 01:49:08;;;;;;;4.05;2.40;;;;;;;;;;10453601;28;20065;-72
2023/06/07 01:54:09;;;;;;;8.07;2.60;;;;;;;;;;10455310;28;20013;-74
2023/06/07 01:59:41;;;;;;;6.47;2.53;;;;;;;;;;10455949;28;20009;-75
2023/06/07 02:04:44;;;;;;;5.20;3.30;;;;;;;;;;10421282;28;20044;-74
2023/06/07 02:09:46;;;;;;;5.20;2.45;;;;;;;;;;10455473;28;20208;-74
2023/06/07 02:14:52;;;;;;;8.88;2.70;;;;;;;;;;10454778;28;20021;-74
2023/06/07 02:19:52;;;;;;;7.82;2.72;;;;;;;;;;10455044;28;20255;-74
2023/06/07 02:24:53;;;;;;;5.68;2.83;;;;;;;;;;10454533;28;20021;-74
2023/06/07 02:29:53;;;;;;;5.00;2.60;;;;;;;;;;10455011;28;20103;-73
2023/06/07 02:34:53;;;;;;;6.80;2.90;;;;;;;;;;10453653;28;20325;-74
2023/06/07 02:39:54;;;;;;;4.57;2.53;;;;;;;;;;10453396;28;20028;-73
2023/06/07 02:44:54;;;;;;;4.35;2.60;;;;;;;;;;10454408;28;20009;-73
2023/06/07 02:49:55;;;;;;;5.93;3.03;;;;;;;;;;10460138;28;20045;-73
2023/06/07 02:54:55;;;;;;;5.65;3.10;;;;;;;;;;10433006;28;20037;-73
2023/06/07 02:59:56;;;;;;;5.33;3.10;;;;;;;;;;10461311;28;20210;-74
2023/06/07 03:04:57;;;;;;;5.63;3.15;;;;;;;;;;10460917;28;20021;-74
2023/06/07 03:09:58;;;;;;;3.53;2.70;;;;;;;;;;10461528;28;20052;-73
2023/06/07 03:14:58;;;;;;;7.45;2.90;;;;;;;;;;10461001;28;20021;-73
2023/06/07 03:19:58;;;;;;;9.80;3.22;;;;;;;;;;10461185;28;20258;-74
2023/06/07 03:24:58;;;;;;;9.18;2.85;;;;;;;;;;10460501;28;20303;-73
2023/06/07 03:30:01;;;;;;;7.97;3.47;;;;;;;;;;10438645;28;20083;-73
2023/06/07 03:35:02;;;;;;;4.57;2.72;;;;;;;;;;10434695;28;20028;-73
2023/06/07 03:40:03;;;;;;;5.15;3.20;;;;;;;;;;10459906;28;20115;-73
2023/06/07 03:45:04;;;;;;;10.00;2.90;;;;;;;;;;10461308;28;20012;-73
2023/06/07 03:50:05;;;;;;;5.65;2.58;;;;;;;;;;10460928;28;20255;-72
2023/06/07 03:55:05;;;;;;;6.70;3.30;;;;;;;;;;10464151;28;20037;-74
2023/06/07 04:00:07;;;;;;;5.30;2.83;;;;;;;;;;10458531;28;20024;-73
2023/06/07 04:05:10;;;;;;;6.57;2.83;;;;;;;;;;10433680;28;20271;-73
2023/06/07 04:10:10;;;;;;;7.50;2.72;;;;;;;;;;10444758;28;20028;-74
2023/06/07 04:15:10;;;;;;;12.77;3.33;;;;;;;;;;10458557;28;20074;-73
2023/06/07 04:20:11;;;;;;;8.00;2.70;;;;;;;;;;10458274;28;20029;-74
2023/06/07 04:25:11;;;;;;;8.13;3.20;;;;;;;;;;10462993;28;20383;-74
2023/06/07 04:30:11;;;;;;;5.10;2.63;;;;;;;;;;10459692;28;20025;-74
2023/06/07 04:35:14;;;;;;;5.50;2.67;;;;;;;;;;10456500;28;20016;-74
2023/06/07 04:40:14;;;;;;;5.43;3.15;;;;;;;;;;10457339;28;20025;-74
2023/06/07 04:45:14;;;;;;;8.48;3.22;;;;;;;;;;10457241;28;20229;-74
2023/06/07 04:50:16;;;;;;;7.43;2.90;;;;;;;;;;10456929;28;20142;-75
2023/06/07 04:55:17;;;;;;;5.25;2.90;;;;;;;;;;10456464;28;20379;-74
2023/06/07 05:00:19;;;;;;;13.38;3.00;;;;;;;;;;10455777;28;20032;-73
2023/06/07 05:05:20;;;;;;;6.53;3.00;;;;;;;;;;10453471;28;20326;-73
2023/06/07 05:10:20;;;;;;;4.63;2.78;;;;;;;;;;10455277;28;20029;-73
2023/06/07 05:15:23;;;;;;;11.07;2.85;;;;;;;;;;10455456;28;20257;-73
2023/06/07 05:20:27;;;;;;;4.70;2.60;;;;;;;;;;10455489;28;20020;-73
2023/06/07 05:25:27;;;;;;;8.38;3.22;;;;;;;;;;10454285;28;20021;-73
2023/06/07 05:30:28;;;;;;;6.28;2.78;;;;;;;;;;10455482;28;20083;-73
2023/06/07 05:35:28;;;;;;;7.33;3.03;;;;;;;;;;10455243;28;20108;-74
2023/06/07 05:40:28;;;;;;;5.75;3.33;;;;;;;;;;10434116;28;20014;-73
2023/06/07 05:45:29;;;;;;;16.73;3.42;;;;;;;;;;10422546;28;20017;-74
2023/06/07 05:50:29;;;;;;;13.27;2.40;;;;;;;;;;10443642;28;20285;-74
2023/06/07 05:55:29;;;;;;;9.50;3.03;;;;;;;;;;10454925;28;20563;-73
2023/06/07 06:00:31;;;;;;;12.40;2.65;;;;;;;;;;10454452;28;20108;-73
2023/06/07 06:05:31;;;;;;;7.65;2.88;;;;;;;;;;10455054;28;20267;-74
2023/06/07 06:10:32;;;;;;;4.50;2.40;;;;;;;;;;10454213;28;20013;-73
2023/06/07 06:15:32;;;;;;;5.72;2.33;;;;;;;;;;10437301;28;20326;-74
2023/06/07 06:20:34;;;;;;;8.53;2.47;;;;;;;;;;10414005;28;20080;-73
2023/06/07 06:25:36;;;;;;;7.97;2.17;;;;;;;;;;10458053;28;20021;-73
2023/06/07 06:30:37;;;;;;;15.73;2.63;;;;;;;;;;10461874;28;20021;-74
2023/06/07 06:35:37;;;;;;;8.57;2.33;;;;;;;;;;10462035;28;20025;-74
2023/06/07 06:40:38;;;;;;;5.63;2.08;;;;;;;;;;10461844;28;20037;-74
2023/06/07 06:45:38;;;;;;;7.15;2.25;;;;;;;;;;10461909;28;20047;-73
2023/06/07 06:50:39;;;;;;;3.45;1.90;;;;;;;;;;10461369;28;20056;-73
2023/06/07 06:55:39;;;;;;;6.75;1.98;;;;;;;;;;10460391;28;20087;-73
2023/06/07 07:00:40;;;;;;;6.93;2.38;;;;;;;;;;10460959;28;20029;-73
2023/06/07 07:05:40;;;;;;;10.50;2.60;;;;;;;;;;10461149;28;20013;-73
2023/06/07 07:10:40;;;;;;;4.00;2.03;;;;;;;;;;10461177;28;20029;-73
2023/06/07 07:15:41;;;;;;;2.72;1.90;;;;;;;;;;10459342;28;20017;-69
2023/06/07 07:20:41;;;;;;;4.77;2.10;;;;;;;;;;10458794;28;20332;-70
2023/06/07 07:25:42;;;;;;;7.32;2.15;;;;;;;;;;10459649;28;20221;-71
2023/06/07 07:30:42;;;;;;;5.32;2.00;;;;;;;;;;10459937;28;20067;-71
2023/06/07 07:35:43;;;;;;;7.40;2.72;;;;;;;;;;10459205;28;20258;-75
2023/06/07 07:40:47;;;;;;;3.53;1.80;;;;;;;;;;10459751;28;20239;-75
2023/06/07 07:45:47;;;;;;;15.65;3.47;;;;;;;;;;10459032;28;20226;-73
2023/06/07 07:50:48;;;;;;;8.80;2.90;;;;;;;;;;10459092;28;20048;-73
2023/06/07 07:55:48;;;;;;;5.70;2.00;;;;;;;;;;10459566;28;20067;-73
2023/06/07 08:00:48;;;;;;;7.40;2.08;;;;;;;;;;10458964;28;20025;-77
2023/06/07 08:05:49;;;;;;;4.40;2.10;;;;;;;;;;10458353;28;20037;-75
2023/06/07 08:10:50;;;;;;;10.57;2.45;;;;;;;;;;10459160;28;20017;-74
2023/06/07 08:15:50;;;;;;;3.10;1.77;;;;;;;;;;10458249;28;20025;-74
2023/06/07 08:20:51;;;;;;;3.70;2.05;;;;;;;;;;10457662;28;20326;-74
2023/06/07 08:25:51;;;;;;;4.60;1.90;;;;;;;;;;10458295;28;20133;-75
2023/06/07 08:30:51;;;;;;;3.87;1.97;;;;;;;;;;10456654;28;20056;-75
2023/06/07 08:35:51;;;;;;;3.30;2.10;;;;;;;;;;10457474;28;20448;-74
2023/06/07 08:40:53;;;;;;;7.78;2.25;;;;;;;;;;10457363;28;20055;-74
2023/06/07 08:45:55;;;;;;;5.07;1.85;;;;;;;;;;10456371;28;20021;-75
2023/06/07 08:50:56;;;;;;;13.77;2.42;;;;;;;;;;10456541;28;20060;-74
2023/06/07 08:55:57;;;;;;;7.68;2.53;;;;;;;;;;10456832;28;20024;-75
2023/06/07 09:00:58;;;;;;;4.18;2.00;;;;;;;;;;10455979;28;20180;-75
2023/06/07 09:05:59;;;;;;;7.38;2.47;;;;;;;;;;10456215;28;20143;-74
2023/06/07 09:11:00;;;;;;;9.98;2.45;;;;;;;;;;10456656;28;20171;-75
2023/06/07 09:16:00;;;;;;;4.55;2.35;;;;;;;;;;10456573;28;20306;-75
2023/06/07 09:21:01;;;;;;;8.05;3.60;;;;;;;;;;10423358;28;20029;-75
2023/06/07 09:26:01;;;;;;;4.07;2.23;;;;;;;;;;10434317;28;20020;-74
2023/06/07 09:31:02;;;;;;;5.63;2.63;;;;;;;;;;10455576;28;20428;-74
2023/06/07 09:36:11;;;;;;;4.82;2.40;;;;;;;;;;10455045;28;20214;-74
2023/06/07 09:41:12;;;;;;;7.63;2.33;;;;;;;;;;10455607;28;20584;-75
2023/06/07 09:46:13;;;;;;;6.25;2.35;;;;;;;;;;10457197;28;20021;-75
2023/06/07 09:51:14;;;;;;;5.30;2.25;;;;;;;;;;10446819;28;20343;-74
2023/06/07 09:56:22;;;;;;;10.25;2.88;;;;;;;;;;10429571;28;20319;-74
2023/06/07 10:01:33;;;;;;;5.82;2.72;;;;;;;;;;10463622;28;20025;-75
2023/06/07 10:06:37;;;;;;;7.40;2.65;;;;;;;;;;10463334;28;20020;-74
2023/06/07 10:11:41;;;;;;;8.25;2.20;;;;;;;;;;10463134;28;20028;-75
2023/06/07 10:16:51;;;;;;;6.18;2.72;;;;;;;;;;10462905;28;20429;-74
2023/06/07 10:21:53;;;;;;;9.30;2.70;;;;;;;;;;10462982;28;20218;-75
2023/06/07 10:26:55;;;;;;;5.50;2.75;;;;;;;;;;10462215;28;20160;-75
2023/06/07 10:32:15;;;;;;;3.38;2.05;;;;;;;;;;10461505;28;20029;-74
2023/06/07 10:37:16;;;;;;;5.40;2.35;;;;;;;;;;10460297;28;20032;-74
2023/06/07 10:42:16;;;;;;;10.00;2.53;;;;;;;;;;10460114;28;20486;-73
2023/06/07 10:47:26;;;;;;;4.35;2.33;;;;;;;;;;10460044;28;20021;-73
2023/06/07 10:52:27;;;;;;;5.93;2.10;;;;;;;;;;10460230;28;20029;-73
2023/06/07 10:57:31;;;;;;;6.72;2.17;;;;;;;;;;10459874;28;20380;-73
2023/06/07 11:02:31;;;;;;;4.15;2.17;;;;;;;;;;10459132;28;20335;-72
2023/06/07 11:07:32;;;;;;;8.90;2.35;;;;;;;;;;10451955;28;20068;-72
2023/06/07 11:12:35;;;;;;;12.02;3.38;;;;;;;;;;10450100;28;20052;-72
2023/06/07 11:17:54;;;;;;;4.78;2.33;;;;;;;;;;10443279;28;20096;-72
2023/06/07 11:23:14;;;;;;;5.25;1.80;;;;;;;;;;10458661;28;20029;-73
2023/06/07 11:28:15;;;;;;;3.05;1.73;;;;;;;;;;10458956;28;20319;-73
2023/06/07 11:33:16;;;;;;;4.25;2.38;;;;;;;;;;10459133;28;20124;-73
2023/06/07 11:38:16;;;;;;;7.55;2.70;;;;;;;;;;10458766;28;20039;-72
2023/06/07 11:43:21;;;;;;;4.82;2.47;;;;;;;;;;10458854;28;20040;-73
2023/06/07 11:48:24;;;;;;;7.57;2.50;;;;;;;;;;10457904;28;20319;-73
2023/06/07 11:53:28;;;;;;;5.82;2.40;;;;;;;;;;10458551;28;20021;-73
2023/06/07 11:58:29;;;;;;;4.32;2.97;;;;;;;;;;10458014;28;20235;-73
2023/06/07 12:03:29;;;;;;;5.82;2.55;;;;;;;;;;10457698;28;20044;-73
2023/06/07 12:08:31;;;;;;;7.20;2.35;;;;;;;;;;10457522;28;20307;-74
2023/06/07 12:13:35;;;;;;;8.90;2.17;;;;;;;;;;10457306;28;20292;-74
2023/06/07 12:18:38;;;;;;;7.07;2.75;;;;;;;;;;10469997;28;20068;-73
2023/06/07 12:23:44;;;;;;;8.25;3.33;;;;;;;;;;10470880;28;20039;-74
2023/06/07 12:28:44;;;;;;;8.63;2.90;;;;;;;;;;10456993;28;20055;-72
2023/06/07 12:33:54;;;;;;;5.07;2.85;;;;;;;;;;10456883;28;20037;-72
2023/06/07 12:38:57;;;;;;;7.47;3.75;;;;;;;;;;10456304;28;20104;-72
2023/06/07 12:44:02;;;;;;;9.32;3.63;;;;;;;;;;10455830;28;20027;-73
2023/06/07 12:49:02;;;;;;;5.15;3.03;;;;;;;;;;10456173;28;20052;-73
2023/06/07 12:54:03;;;;;;;10.98;3.10;;;;;;;;;;10455831;28;20029;-73
2023/06/07 12:59:03;;;;;;;9.27;4.47;;;;;;;;;;10455465;28;20033;-72
2023/06/07 13:04:04;;;;;;;6.90;2.78;;;;;;;;;;10455453;28;20017;-73
2023/06/07 13:09:08;;;;;;;5.25;2.60;;;;;;;;;;10455614;28;20136;-74
2023/06/07 13:14:08;;;;;;;4.93;3.17;;;;;;;;;;10454962;28;20259;-73
2023/06/07 13:19:08;;;;;;;13.68;4.70;;;;;;;;;;10454864;28;20025;-72
2023/06/07 13:24:09;;;;;;;6.40;3.05;;;;;;;;;;10455013;28;20027;-73
2023/06/07 13:29:09;;;;;;;7.67;3.33;;;;;;;;;;10454445;28;20044;-74
2023/06/07 13:34:09;;;;;;;4.30;2.88;;;;;;;;;;10453677;28;20043;-73
2023/06/07 13:39:10;;;;;;;10.32;3.00;;;;;;;;;;10454288;28;20024;-73
2023/06/07 13:44:10;;;;;;;7.75;3.20;;;;;;;;;;10454273;28;20008;-73
2023/06/07 13:49:11;;;;;;;10.52;2.78;;;;;;;;;;10453412;28;20037;-72
2023/06/07 13:54:13;;;;;;;5.80;3.05;;;;;;;;;;10453865;28;20366;-73
2023/06/07 13:59:14;;;;;;;7.93;2.65;;;;;;;;;;10453863;28;20025;-72
2023/06/07 14:04:15;;;;;;;11.10;2.77;;;;;;;;;;10453862;28;20027;-73
2023/06/07 14:09:15;;;;;;;6.38;2.85;;;;;;;;;;10454075;28;20028;-77
2023/06/07 14:14:15;;;;;;;5.25;3.22;;;;;;;;;;10453591;28;20021;-73
2023/06/07 14:19:16;;;;;;;8.23;3.50;;;;;;;;;;10452919;28;20021;-70
2023/06/07 14:24:16;;;;;;;4.93;2.55;;;;;;;;;;10453211;28;20056;-72
2023/06/07 14:29:16;;;;;;;5.27;3.20;;;;;;;;;;10453362;28;20094;-72
2023/06/07 14:34:17;;;;;;;5.88;3.00;;;;;;;;;;10452892;28;20055;-72
2023/06/07 14:39:17;;;;;;;8.82;4.07;;;;;;;;;;10453045;28;20021;-73
2023/06/07 14:44:19;;;;;;;4.85;3.00;;;;;;;;;;10458251;28;20269;-73
2023/06/07 14:49:19;;;;;;;6.28;4.10;;;;;;;;;;10460277;28;20060;-73
2023/06/07 14:54:19;;;;;;;6.03;4.17;;;;;;;;;;10459845;28;20028;-73
2023/06/07 14:59:20;;;;;;;6.10;4.27;;;;;;;;;;10460084;28;20373;-74
2023/06/07 15:04:20;;;;;;;11.00;4.85;;;;;;;;;;10436044;28;20021;-74
2023/06/07 15:09:21;;;;;;;7.22;4.30;;;;;;;;;;10437772;28;20214;-74
2023/06/07 15:14:22;;;;;;;8.48;3.83;;;;;;;;;;10463933;28;20088;-74
2023/06/07 15:19:22;;;;;;;6.93;4.95;;;;;;;;;;10458722;28;20037;-73
2023/06/07 15:24:22;;;;;;;12.20;4.35;;;;;;;;;;10458694;28;20299;-74
2023/06/07 15:29:22;;;;;;;8.02;4.03;;;;;;;;;;10459155;28;20024;-74
2023/06/07 15:34:25;;;;;;;11.65;5.30;;;;;;;;;;10458037;28;20066;-73
2023/06/07 15:39:25;;;;;;;10.32;4.88;;;;;;;;;;10458500;28;20025;-73
2023/06/07 15:44:26;;;;;;;8.40;4.05;;;;;;;;;;10457847;28;20013;-74
2023/06/07 15:49:26;;;;;;;6.07;3.67;;;;;;;;;;10458300;28;20103;-73
2023/06/07 15:54:26;;;;;;;9.23;4.10;;;;;;;;;;10454166;28;20079;-74
2023/06/07 15:59:27;;;;;;;9.23;3.97;;;;;;;;;;10416790;28;20059;-72
2023/06/07 16:04:27;;;;;;;6.22;3.40;;;;;;;;;;10436944;28;20025;-73
2023/06/07 16:09:28;;;;;;;6.22;3.65;;;;;;;;;;10456249;28;20025;-74
2023/06/07 16:14:28;;;;;;;6.43;4.40;;;;;;;;;;10457669;28;20230;-74
2023/06/07 16:19:28;;;;;;;4.95;3.75;;;;;;;;;;10456513;28;20020;-74
2023/06/07 16:24:29;;;;;;;10.50;4.80;;;;;;;;;;10452325;28;20024;-74
2023/06/07 16:29:29;;;;;;;8.38;3.83;;;;;;;;;;10414528;28;20017;-75
2023/06/07 16:34:30;;;;;;;9.48;4.15;;;;;;;;;;10447313;28;20128;-73
2023/06/07 16:39:30;;;;;;;8.48;3.95;;;;;;;;;;10455331;28;20338;-74
2023/06/07 16:44:31;;;;;;;7.47;3.90;;;;;;;;;;10456121;28;20036;-73
2023/06/07 16:49:34;;;;;;;7.87;4.83;;;;;;;;;;10456382;28;20041;-73
2023/06/07 16:54:34;;;;;;;6.68;4.05;;;;;;;;;;10455579;28;20481;-73
2023/06/07 16:59:34;;;;;;;7.68;4.47;;;;;;;;;;10455037;28;20028;-73
2023/06/07 17:04:35;;;;;;;9.57;3.75;;;;;;;;;;10456206;28;20105;-74
2023/06/07 17:09:35;;;;;;;11.68;4.57;;;;;;;;;;10455576;28;20039;-74
2023/06/07 17:14:35;;;;;;;9.13;4.13;;;;;;;;;;10454218;28;20052;-73
2023/06/07 17:19:36;;;;;;;7.77;4.10;;;;;;;;;;10455556;28;20029;-74
2023/06/07 17:24:36;;;;;;;11.82;5.07;;;;;;;;;;10455077;28;20024;-74
2023/06/07 17:29:36;;;;;;;8.43;4.35;;;;;;;;;;10454452;28;20086;-73
2023/06/07 17:34:36;;;;;;;9.65;4.63;;;;;;;;;;10454732;28;20364;-74
2023/06/07 17:39:37;;;;;;;11.52;4.63;;;;;;;;;;10454664;28;20032;-74
2023/06/07 17:44:37;;;;;;;7.57;3.95;;;;;;;;;;10454315;28;20130;-75
2023/06/07 17:49:37;;;;;;;9.70;4.13;;;;;;;;;;10453018;28;20053;-75
2023/06/07 17:54:37;;;;;;;8.52;4.78;;;;;;;;;;10453000;28;20028;-75
2023/06/07 17:59:38;;;;;;;9.38;4.78;;;;;;;;;;10453581;28;20066;-74
2023/06/07 18:04:38;;;;;;;9.82;4.75;;;;;;;;;;10453794;28;20062;-73
2023/06/07 18:09:39;;;;;;;9.13;4.47;;;;;;;;;;10454258;28;20017;-73
2023/06/07 18:14:39;;;;;;;9.77;5.45;;;;;;;;;;10453650;28;20255;-73
2023/06/07 18:19:40;;;;;;;7.38;4.90;;;;;;;;;;10460909;28;20441;-73
2023/06/07 18:24:40;;;;;;;8.48;5.45;;;;;;;;;;10456417;28;20017;-73
2023/06/07 18:29:40;;;;;;;8.10;4.90;;;;;;;;;;10461185;28;20032;-73
2023/06/07 18:34:41;;;;;;;7.68;4.68;;;;;;;;;;10460202;28;20016;-73
2023/06/07 18:39:41;;;;;;;9.88;5.20;;;;;;;;;;10459525;28;20013;-72
2023/06/07 18:44:41;;;;;;;9.18;5.05;;;;;;;;;;10420918;28;20215;-72
2023/06/07 18:49:42;;;;;;;7.80;5.47;;;;;;;;;;10455415;28;20204;-74
2023/06/07 18:54:42;;;;;;;11.50;5.68;;;;;;;;;;10453909;28;20349;-77
2023/06/07 18:59:42;;;;;;;9.52;5.75;;;;;;;;;;10455437;28;20023;-78
2023/06/07 19:04:42;;;;;;;9.15;4.93;;;;;;;;;;10451963;28;20222;-74
2023/06/07 19:09:43;;;;;;;14.30;6.40;;;;;;;;;;10451043;28;20447;-73
2023/06/07 19:14:44;;;;;;;11.73;6.20;;;;;;;;;;10451416;28;20021;-74
2023/06/07 19:19:44;;;;;;;14.50;6.40;;;;;;;;;;10453267;28;20142;-72
2023/06/07 19:24:45;;;;;;;7.70;5.47;;;;;;;;;;10452072;28;20025;-73
2023/06/07 19:29:45;;;;;;;11.75;6.10;;;;;;;;;;10452509;28;20287;-75
2023/06/07 19:34:46;;;;;;;8.80;5.97;;;;;;;;;;10452573;28;20071;-85
2023/06/07 19:39:46;;;;;;;10.52;6.57;;;;;;;;;;10466543;28;20021;-79
2023/06/07 19:44:46;;;;;;;9.57;6.25;;;;;;;;;;10452756;28;20019;-77
2023/06/07 19:49:47;;;;;;;9.17;5.80;;;;;;;;;;10456290;28;20045;-72
2023/06/07 19:54:49;;;;;;;9.33;5.37;;;;;;;;;;10449778;28;20029;-73
2023/06/07 19:59:49;;;;;;;9.13;5.75;;;;;;;;;;10451719;28;20088;-73
2023/06/07 20:04:49;;;;;;;7.18;5.82;;;;;;;;;;10450495;28;20009;-73
2023/06/07 20:09:50;;;;;;;12.43;5.55;;;;;;;;;;10450530;28;20012;-72
2023/06/07 20:14:50;;;;;;;9.65;5.80;;;;;;;;;;10451029;28;20322;-72
2023/06/07 20:19:51;;;;;;;9.93;6.05;;;;;;;;;;10451166;28;20333;-73
2023/06/07 20:24:51;;;;;;;7.57;5.43;;;;;;;;;;10450022;28;20412;-72
2023/06/07 20:29:51;;;;;;;9.37;5.37;;;;;;;;;;10449977;28;20171;-73
2023/06/07 20:34:52;;;;;;;8.23;5.60;;;;;;;;;;10450280;28;20011;-72
2023/06/07 20:39:52;;;;;;;9.77;5.28;;;;;;;;;;10448864;28;20432;-72
2023/06/07 20:44:52;;;;;;;9.57;5.38;;;;;;;;;;10449646;28;20044;-72
2023/06/07 20:49:53;;;;;;;14.65;5.38;;;;;;;;;;10451099;28;20253;-72
2023/06/07 20:54:53;;;;;;;7.57;4.78;;;;;;;;;;10450653;28;20322;-74
2023/06/07 20:59:53;;;;;;;13.18;5.43;;;;;;;;;;10450327;28;20461;-72
2023/06/07 21:04:54;;;;;;;16.40;5.28;;;;;;;;;;10448472;28;20187;-72
2023/06/07 21:09:54;;;;;;;11.07;5.37;;;;;;;;;;10449797;28;20024;-72
2023/06/07 21:14:56;;;;;;;9.50;5.28;;;;;;;;;;10448431;28;20016;-72
2023/06/07 21:19:57;;;;;;;6.03;5.10;;;;;;;;;;10458880;28;20025;-83
2023/06/07 21:24:57;;;;;;;10.57;4.75;;;;;;;;;;10465252;28;20013;-84
2023/06/07 21:29:58;;;;;;;10.20;5.90;;;;;;;;;;10464553;28;20054;-84
2023/06/07 21:34:59;;;;;;;7.47;4.78;;;;;;;;;;10463128;28;20027;-83
2023/06/07 21:40:00;;;;;;;8.68;5.00;;;;;;;;;;10463674;28;20075;-85
2023/06/07 21:45:00;;;;;;;7.53;5.00;;;;;;;;;;10463985;28;20211;-84
2023/06/07 21:50:01;;;;;;;13.37;5.20;;;;;;;;;;10462591;28;20465;-85
2023/06/07 21:55:01;;;;;;;11.32;4.97;;;;;;;;;;10462414;28;20021;-83
2023/06/07 22:00:02;;;;;;;8.97;6.00;;;;;;;;;;10464139;28;20409;-83
2023/06/07 22:05:02;;;;;;;8.38;4.88;;;;;;;;;;10460523;28;20307;-85
2023/06/07 22:10:04;;;;;;;8.00;4.93;;;;;;;;;;10463065;28;20292;-83
2023/06/07 22:15:05;;;;;;;10.15;4.93;;;;;;;;;;10463886;28;20274;-83
2023/06/07 22:20:05;;;;;;;9.00;5.25;;;;;;;;;;10479405;28;20024;-83
2023/06/07 22:25:07;;;;;;;15.68;5.20;;;;;;;;;;10463291;28;20020;-83
2023/06/07 22:30:08;;;;;;;10.93;4.82;;;;;;;;;;10463987;28;20202;-83
2023/06/07 22:35:08;;;;;;;7.28;4.50;;;;;;;;;;10463937;28;20017;-86
2023/06/07 22:40:09;;;;;;;6.53;4.10;;;;;;;;;;10463861;28;20020;-84
2023/06/07 22:45:09;;;;;;;6.78;4.00;;;;;;;;;;10463775;28;20008;-86
2023/06/07 22:50:10;;;;;;;8.98;4.13;;;;;;;;;;10464127;28;20041;-86
2023/06/07 22:55:13;;;;;;;8.60;4.57;;;;;;;;;;10463591;28;20017;-83
2023/06/07 23:00:13;;;;;;;6.03;4.25;;;;;;;;;;10477403;28;20025;-82
2023/06/07 23:05:16;;;;;;;10.25;3.70;;;;;;;;;;10467222;28;20047;-82
2023/06/07 23:10:17;;;;;;;6.88;4.07;;;;;;;;;;10471339;28;20016;-84
2023/06/07 23:15:18;;;;;;;5.35;3.67;;;;;;;;;;10469888;28;20455;-84
2023/06/07 23:20:18;;;;;;;8.55;4.20;;;;;;;;;;10471049;28;20016;-83
2023/06/07 23:25:19;;;;;;;10.25;3.90;;;;;;;;;;10471373;28;20074;-83
2023/06/07 23:30:20;;;;;;;8.43;4.30;;;;;;;;;;10470159;28;20023;-83
2023/06/07 23:35:20;;;;;;;13.18;4.65;;;;;;;;;;10469681;28;20312;-84
2023/06/07 23:40:21;;;;;;;5.97;4.60;;;;;;;;;;10470639;28;20210;-85
2023/06/07 23:45:21;;;;;;;10.27;4.47;;;;;;;;;;10433700;28;20016;-84
2023/06/07 23:50:21;;;;;;;6.50;4.00;;;;;;;;;;10431093;28;20068;-85
2023/06/07 23:55:22;;;;;;;6.23;3.90;;;;;;;;;;10469537;28;20100;-84
